sensor_id;sensor_type;location;lat;lon;timestamp;pressure;altitude;pressure_sealevel;temperature;humidity
85735;BME280;76179;42.316;22.856;2024-02-04T00:02:01;94897.34;;;-1.10;71.20
85735;BME280;76179;42.316;22.856;2024-02-04T00:04:29;94899.22;;;-1.27;71.31
85735;BME280;76179;42.316;22.856;2024-02-04T00:06:54;94899.38;;;-1.20;70.95
85735;BME280;76179;42.316;22.856;2024-02-04T00:09:20;94894.88;;;-1.31;71.70
85735;BME280;76179;42.316;22.856;2024-02-04T00:11:45;94897.22;;;-1.30;72.08
85735;BME280;76179;42.316;22.856;2024-02-04T00:14:11;94900.41;;;-1.40;70.83
85735;BME280;76179;42.316;22.856;2024-02-04T00:16:36;94900.41;;;-1.40;71.24
85735;BME280;76179;42.316;22.856;2024-02-04T00:19:02;94913.16;;;-1.33;70.97
85735;BME280;76179;42.316;22.856;2024-02-04T00:21:27;94914.00;;;-1.29;71.02
85735;BME280;76179;42.316;22.856;2024-02-04T00:23:52;94899.81;;;-1.33;71.12
85735;BME280;76179;42.316;22.856;2024-02-04T00:26:18;94904.81;;;-1.32;72.00
85735;BME280;76179;42.316;22.856;2024-02-04T00:28:43;94900.31;;;-1.28;71.85
85735;BME280;76179;42.316;22.856;2024-02-04T00:31:09;94907.72;;;-1.37;71.57
85735;BME280;76179;42.316;22.856;2024-02-04T00:33:34;94914.72;;;-1.32;71.57
85735;BME280;76179;42.316;22.856;2024-02-04T00:35:59;94912.59;;;-1.39;72.02
85735;BME280;76179;42.316;22.856;2024-02-04T00:38:25;94908.03;;;-1.38;72.57
85735;BME280;76179;42.316;22.856;2024-02-04T00:40:50;94910.16;;;-1.32;72.91
85735;BME280;76179;42.316;22.856;2024-02-04T00:43:17;94903.41;;;-1.41;73.71
85735;BME280;76179;42.316;22.856;2024-02-04T00:45:43;94909.41;;;-1.44;73.93
85735;BME280;76179;42.316;22.856;2024-02-04T00:48:08;94913.03;;;-1.37;74.08
85735;BME280;76179;42.316;22.856;2024-02-04T00:50:34;94905.81;;;-1.36;73.64
85735;BME280;76179;42.316;22.856;2024-02-04T00:52:59;94906.88;;;-1.25;73.56
85735;BME280;76179;42.316;22.856;2024-02-04T00:55:24;94914.13;;;-1.26;73.75
85735;BME280;76179;42.316;22.856;2024-02-04T00:57:49;94905.75;;;-1.24;73.69
85735;BME280;76179;42.316;22.856;2024-02-04T01:00:15;94915.16;;;-1.14;72.77
85735;BME280;76179;42.316;22.856;2024-02-04T01:02:41;94893.72;;;-1.18;72.87
85735;BME280;76179;42.316;22.856;2024-02-04T01:05:07;94902.06;;;-1.20;72.96
85735;BME280;76179;42.316;22.856;2024-02-04T01:07:33;94897.66;;;-1.12;73.40
85735;BME280;76179;42.316;22.856;2024-02-04T01:09:58;94894.19;;;-1.28;74.49
85735;BME280;76179;42.316;22.856;2024-02-04T01:12:23;94902.22;;;-1.28;73.61
85735;BME280;76179;42.316;22.856;2024-02-04T01:14:49;94897.16;;;-1.18;74.00
85735;BME280;76179;42.316;22.856;2024-02-04T01:17:14;94904.22;;;-1.09;74.64
85735;BME280;76179;42.316;22.856;2024-02-04T01:19:40;94902.59;;;-0.98;74.03
85735;BME280;76179;42.316;22.856;2024-02-04T01:22:05;94892.78;;;-1.10;74.23
85735;BME280;76179;42.316;22.856;2024-02-04T01:24:31;94898.19;;;-1.06;74.63
85735;BME280;76179;42.316;22.856;2024-02-04T01:26:57;94903.69;;;-0.99;74.62
85735;BME280;76179;42.316;22.856;2024-02-04T01:29:22;94911.53;;;-0.91;74.85
85735;BME280;76179;42.316;22.856;2024-02-04T01:31:47;94902.69;;;-0.79;74.70
85735;BME280;76179;42.316;22.856;2024-02-04T01:34:13;94910.16;;;-0.69;74.79
85735;BME280;76179;42.316;22.856;2024-02-04T01:36:38;94903.44;;;-0.63;74.50
85735;BME280;76179;42.316;22.856;2024-02-04T01:39:03;94897.91;;;-0.54;75.18
85735;BME280;76179;42.316;22.856;2024-02-04T01:41:30;94885.50;;;-0.47;74.05
85735;BME280;76179;42.316;22.856;2024-02-04T01:43:55;94891.19;;;-0.48;73.73
85735;BME280;76179;42.316;22.856;2024-02-04T01:46:21;94888.66;;;-0.41;73.91
85735;BME280;76179;42.316;22.856;2024-02-04T01:48:47;94878.13;;;-0.34;74.09
85735;BME280;76179;42.316;22.856;2024-02-04T01:51:14;94883.03;;;-0.36;74.07
85735;BME280;76179;42.316;22.856;2024-02-04T01:53:44;94873.69;;;-0.26;75.02
85735;BME280;76179;42.316;22.856;2024-02-04T01:56:11;94872.16;;;-0.27;75.27
85735;BME280;76179;42.316;22.856;2024-02-04T01:58:37;94882.56;;;-0.22;75.25
85735;BME280;76179;42.316;22.856;2024-02-04T02:01:03;94877.00;;;-0.14;76.22
85735;BME280;76179;42.316;22.856;2024-02-04T02:03:31;94884.59;;;0.00;75.06
85735;BME280;76179;42.316;22.856;2024-02-04T02:05:57;94886.78;;;0.14;75.41
85735;BME280;76179;42.316;22.856;2024-02-04T02:08:23;94881.22;;;0.22;74.94
85735;BME280;76179;42.316;22.856;2024-02-04T02:10:50;94876.00;;;0.29;74.35
85735;BME280;76179;42.316;22.856;2024-02-04T02:13:25;94886.06;;;0.36;73.52
85735;BME280;76179;42.316;22.856;2024-02-04T02:15:54;94879.28;;;0.42;72.84
85735;BME280;76179;42.316;22.856;2024-02-04T02:24:11;94881.44;;;0.56;71.76
85735;BME280;76179;42.316;22.856;2024-02-04T02:26:40;94879.84;;;0.51;71.48
85735;BME280;76179;42.316;22.856;2024-02-04T02:29:05;94873.63;;;0.47;72.08
85735;BME280;76179;42.316;22.856;2024-02-04T02:31:34;94870.34;;;0.54;71.71
85735;BME280;76179;42.316;22.856;2024-02-04T02:34:00;94872.03;;;0.62;71.20
85735;BME280;76179;42.316;22.856;2024-02-04T02:36:29;94872.91;;;0.69;71.16
85735;BME280;76179;42.316;22.856;2024-02-04T02:39:06;94879.81;;;0.70;71.98
85735;BME280;76179;42.316;22.856;2024-02-04T02:41:35;94884.88;;;0.75;70.96
85735;BME280;76179;42.316;22.856;2024-02-04T02:44:02;94873.03;;;0.76;70.93
85735;BME280;76179;42.316;22.856;2024-02-04T02:46:28;94878.78;;;0.78;70.51
85735;BME280;76179;42.316;22.856;2024-02-04T02:48:54;94881.91;;;0.81;71.30
85735;BME280;76179;42.316;22.856;2024-02-04T02:51:19;94876.53;;;0.81;71.59
85735;BME280;76179;42.316;22.856;2024-02-04T02:53:44;94878.06;;;0.59;70.83
85735;BME280;76179;42.316;22.856;2024-02-04T02:56:10;94878.06;;;0.59;71.66
85735;BME280;76179;42.316;22.856;2024-02-04T02:58:35;94877.41;;;0.65;70.68
85735;BME280;76179;42.316;22.856;2024-02-04T03:01:01;94881.00;;;0.73;70.08
85735;BME280;76179;42.316;22.856;2024-02-04T03:03:27;94879.88;;;0.74;70.69
85735;BME280;76179;42.316;22.856;2024-02-04T03:05:52;94871.13;;;0.77;70.26
85735;BME280;76179;42.316;22.856;2024-02-04T03:08:17;94872.53;;;0.71;70.25
85735;BME280;76179;42.316;22.856;2024-02-04T03:10:43;94878.84;;;0.40;71.07
85735;BME280;76179;42.316;22.856;2024-02-04T03:13:08;94870.94;;;0.47;70.71
85735;BME280;76179;42.316;22.856;2024-02-04T03:15:33;94874.19;;;0.56;70.15
85735;BME280;76179;42.316;22.856;2024-02-04T03:17:59;94877.78;;;0.64;70.59
85735;BME280;76179;42.316;22.856;2024-02-04T03:20:24;94872.84;;;0.66;70.03
85735;BME280;76179;42.316;22.856;2024-02-04T03:22:49;94862.47;;;0.64;70.11
85735;BME280;76179;42.316;22.856;2024-02-04T03:25:15;94857.66;;;0.51;71.41
85735;BME280;76179;42.316;22.856;2024-02-04T03:27:40;94864.34;;;0.60;71.16
85735;BME280;76179;42.316;22.856;2024-02-04T03:30:06;94864.19;;;0.53;71.12
85735;BME280;76179;42.316;22.856;2024-02-04T03:32:31;94859.28;;;0.36;72.21
85735;BME280;76179;42.316;22.856;2024-02-04T03:35:00;94861.41;;;0.46;72.16
85735;BME280;76179;42.316;22.856;2024-02-04T03:37:26;94860.19;;;0.44;72.09
85735;BME280;76179;42.316;22.856;2024-02-04T03:39:51;94845.59;;;0.41;71.86
85735;BME280;76179;42.316;22.856;2024-02-04T03:42:16;94856.91;;;0.31;71.76
85735;BME280;76179;42.316;22.856;2024-02-04T03:44:43;94857.50;;;0.44;70.74
85735;BME280;76179;42.316;22.856;2024-02-04T03:47:09;94856.75;;;0.43;70.23
85735;BME280;76179;42.316;22.856;2024-02-04T03:49:34;94874.06;;;0.49;70.43
85735;BME280;76179;42.316;22.856;2024-02-04T03:52:00;94858.50;;;0.35;70.74
85735;BME280;76179;42.316;22.856;2024-02-04T03:54:25;94852.72;;;0.33;71.78
85735;BME280;76179;42.316;22.856;2024-02-04T03:56:50;94821.75;;;0.13;71.76
85735;BME280;76179;42.316;22.856;2024-02-04T03:59:16;94841.97;;;0.11;71.55
85735;BME280;76179;42.316;22.856;2024-02-04T04:01:47;94832.25;;;0.22;70.98
85735;BME280;76179;42.316;22.856;2024-02-04T04:04:12;94828.72;;;0.18;70.83
85735;BME280;76179;42.316;22.856;2024-02-04T04:06:38;94823.38;;;0.18;71.53
85735;BME280;76179;42.316;22.856;2024-02-04T04:09:03;94828.66;;;0.14;70.99
85735;BME280;76179;42.316;22.856;2024-02-04T04:11:28;94826.38;;;0.16;71.19
85735;BME280;76179;42.316;22.856;2024-02-04T04:13:54;94837.59;;;0.22;70.21
85735;BME280;76179;42.316;22.856;2024-02-04T04:16:22;94827.09;;;-0.06;70.78
85735;BME280;76179;42.316;22.856;2024-02-04T04:18:48;94836.41;;;0.00;70.27
85735;BME280;76179;42.316;22.856;2024-02-04T04:21:13;94846.19;;;-0.08;70.94
85735;BME280;76179;42.316;22.856;2024-02-04T04:23:38;94843.00;;;-0.32;71.34
85735;BME280;76179;42.316;22.856;2024-02-04T04:26:04;94840.25;;;-0.36;72.03
85735;BME280;76179;42.316;22.856;2024-02-04T04:28:30;94824.22;;;-0.36;71.25
85735;BME280;76179;42.316;22.856;2024-02-04T04:30:56;94827.53;;;-0.58;73.54
85735;BME280;76179;42.316;22.856;2024-02-04T04:33:22;94825.38;;;-0.53;73.66
85735;BME280;76179;42.316;22.856;2024-02-04T04:35:47;94826.28;;;-0.45;72.56
85735;BME280;76179;42.316;22.856;2024-02-04T04:38:12;94819.00;;;-0.48;72.89
85735;BME280;76179;42.316;22.856;2024-02-04T04:40:38;94817.50;;;-0.46;72.27
85735;BME280;76179;42.316;22.856;2024-02-04T04:43:05;94813.03;;;-0.42;72.25
85735;BME280;76179;42.316;22.856;2024-02-04T04:45:31;94816.91;;;-0.39;72.82
85735;BME280;76179;42.316;22.856;2024-02-04T04:47:56;94826.72;;;-0.43;73.18
85735;BME280;76179;42.316;22.856;2024-02-04T04:50:22;94838.78;;;-0.33;73.01
85735;BME280;76179;42.316;22.856;2024-02-04T04:52:47;94835.03;;;-0.29;72.57
85735;BME280;76179;42.316;22.856;2024-02-04T04:55:13;94832.81;;;-0.27;72.78
85735;BME280;76179;42.316;22.856;2024-02-04T04:57:38;94843.31;;;-0.18;73.02
85735;BME280;76179;42.316;22.856;2024-02-04T05:00:04;94838.94;;;-0.26;73.30
85735;BME280;76179;42.316;22.856;2024-02-04T05:02:32;94846.31;;;-0.20;73.48
85735;BME280;76179;42.316;22.856;2024-02-04T05:04:58;94848.38;;;-0.13;73.65
85735;BME280;76179;42.316;22.856;2024-02-04T05:07:23;94854.28;;;-0.04;73.69
85735;BME280;76179;42.316;22.856;2024-02-04T05:09:48;94853.59;;;-0.01;72.38
85735;BME280;76179;42.316;22.856;2024-02-04T05:12:14;94842.81;;;-0.05;72.22
85735;BME280;76179;42.316;22.856;2024-02-04T05:14:39;94841.06;;;0.03;72.56
85735;BME280;76179;42.316;22.856;2024-02-04T05:17:04;94830.06;;;0.08;71.64
85735;BME280;76179;42.316;22.856;2024-02-04T05:19:31;94835.84;;;0.10;72.28
85735;BME280;76179;42.316;22.856;2024-02-04T05:21:56;94821.69;;;0.10;71.87
85735;BME280;76179;42.316;22.856;2024-02-04T05:24:21;94834.78;;;0.15;71.28
85735;BME280;76179;42.316;22.856;2024-02-04T05:26:47;94843.03;;;0.06;71.63
85735;BME280;76179;42.316;22.856;2024-02-04T05:29:12;94842.94;;;0.03;71.45
85735;BME280;76179;42.316;22.856;2024-02-04T05:31:41;94853.94;;;0.17;70.93
85735;BME280;76179;42.316;22.856;2024-02-04T05:34:07;94843.25;;;-0.03;72.23
85735;BME280;76179;42.316;22.856;2024-02-04T05:36:33;94844.59;;;0.07;71.19
85735;BME280;76179;42.316;22.856;2024-02-04T05:39:10;94853.22;;;0.00;71.78
85735;BME280;76179;42.316;22.856;2024-02-04T05:41:40;94854.91;;;0.09;71.58
85735;BME280;76179;42.316;22.856;2024-02-04T05:44:06;94840.34;;;0.06;70.25
85735;BME280;76179;42.316;22.856;2024-02-04T05:46:34;94844.72;;;-0.05;71.77
85735;BME280;76179;42.316;22.856;2024-02-04T05:48:59;94850.94;;;-0.01;71.74
85735;BME280;76179;42.316;22.856;2024-02-04T05:51:25;94850.19;;;0.02;71.39
85735;BME280;76179;42.316;22.856;2024-02-04T05:53:50;94852.25;;;0.09;71.02
85735;BME280;76179;42.316;22.856;2024-02-04T05:56:15;94851.84;;;0.07;70.12
85735;BME280;76179;42.316;22.856;2024-02-04T05:58:41;94851.09;;;-0.29;71.72
85735;BME280;76179;42.316;22.856;2024-02-04T06:01:06;94861.25;;;-0.19;72.32
85735;BME280;76179;42.316;22.856;2024-02-04T06:03:32;94844.13;;;-0.14;71.26
85735;BME280;76179;42.316;22.856;2024-02-04T06:05:58;94852.94;;;-0.14;70.88
85735;BME280;76179;42.316;22.856;2024-02-04T06:08:23;94855.47;;;-0.21;71.67
85735;BME280;76179;42.316;22.856;2024-02-04T06:10:49;94850.59;;;-0.15;71.12
85735;BME280;76179;42.316;22.856;2024-02-04T06:13:14;94863.72;;;-0.10;72.50
85735;BME280;76179;42.316;22.856;2024-02-04T06:15:40;94861.41;;;-0.12;72.43
85735;BME280;76179;42.316;22.856;2024-02-04T06:18:05;94869.00;;;-0.14;71.93
85735;BME280;76179;42.316;22.856;2024-02-04T06:20:30;94871.19;;;-0.19;73.04
85735;BME280;76179;42.316;22.856;2024-02-04T06:22:56;94861.75;;;-0.13;73.44
85735;BME280;76179;42.316;22.856;2024-02-04T06:25:23;94874.47;;;-0.07;73.50
85735;BME280;76179;42.316;22.856;2024-02-04T06:27:48;94845.50;;;-0.05;72.79
85735;BME280;76179;42.316;22.856;2024-02-04T06:30:14;94861.53;;;-0.05;73.28
85735;BME280;76179;42.316;22.856;2024-02-04T06:32:39;94870.44;;;-0.01;73.18
85735;BME280;76179;42.316;22.856;2024-02-04T06:35:05;94868.09;;;-0.02;72.70
85735;BME280;76179;42.316;22.856;2024-02-04T06:37:30;94868.31;;;-0.11;74.02
85735;BME280;76179;42.316;22.856;2024-02-04T06:39:55;94890.44;;;0.06;73.99
85735;BME280;76179;42.316;22.856;2024-02-04T06:42:21;94886.97;;;0.05;72.23
85735;BME280;76179;42.316;22.856;2024-02-04T06:44:46;94880.69;;;-0.03;73.54
85735;BME280;76179;42.316;22.856;2024-02-04T06:47:12;94899.84;;;-0.01;74.34
85735;BME280;76179;42.316;22.856;2024-02-04T06:49:39;94884.22;;;0.02;73.29
85735;BME280;76179;42.316;22.856;2024-02-04T06:52:05;94881.41;;;0.14;72.98
85735;BME280;76179;42.316;22.856;2024-02-04T06:54:30;94879.13;;;0.16;74.51
85735;BME280;76179;42.316;22.856;2024-02-04T06:56:56;94872.19;;;0.30;73.46
85735;BME280;76179;42.316;22.856;2024-02-04T06:59:21;94891.31;;;0.32;73.55
85735;BME280;76179;42.316;22.856;2024-02-04T07:01:46;94892.31;;;0.44;72.55
85735;BME280;76179;42.316;22.856;2024-02-04T07:04:12;94905.91;;;0.54;73.07
85735;BME280;76179;42.316;22.856;2024-02-04T07:06:37;94897.25;;;0.61;73.15
85735;BME280;76179;42.316;22.856;2024-02-04T07:09:03;94911.59;;;0.72;73.38
85735;BME280;76179;42.316;22.856;2024-02-04T07:11:28;94892.91;;;0.75;72.93
85735;BME280;76179;42.316;22.856;2024-02-04T07:13:54;94898.72;;;0.58;73.38
85735;BME280;76179;42.316;22.856;2024-02-04T07:16:27;94906.06;;;0.61;72.60
85735;BME280;76179;42.316;22.856;2024-02-04T07:18:54;94906.53;;;0.67;72.88
85735;BME280;76179;42.316;22.856;2024-02-04T07:21:19;94904.97;;;0.85;72.81
85735;BME280;76179;42.316;22.856;2024-02-04T07:23:44;94904.56;;;1.06;72.79
85735;BME280;76179;42.316;22.856;2024-02-04T07:26:10;94906.34;;;1.21;72.66
85735;BME280;76179;42.316;22.856;2024-02-04T07:28:37;94892.06;;;1.40;71.28
85735;BME280;76179;42.316;22.856;2024-02-04T07:31:02;94887.34;;;1.56;70.79
85735;BME280;76179;42.316;22.856;2024-02-04T07:33:28;94888.59;;;1.62;69.73
85735;BME280;76179;42.316;22.856;2024-02-04T07:35:53;94886.50;;;1.78;69.87
85735;BME280;76179;42.316;22.856;2024-02-04T07:38:18;94888.56;;;1.88;69.49
85735;BME280;76179;42.316;22.856;2024-02-04T07:40:44;94878.19;;;1.87;69.60
85735;BME280;76179;42.316;22.856;2024-02-04T07:43:09;94884.81;;;1.93;69.99
85735;BME280;76179;42.316;22.856;2024-02-04T07:45:34;94888.91;;;2.13;69.17
85735;BME280;76179;42.316;22.856;2024-02-04T07:48:00;94883.28;;;2.25;69.37
85735;BME280;76179;42.316;22.856;2024-02-04T07:50:27;94881.25;;;2.49;69.34
85735;BME280;76179;42.316;22.856;2024-02-04T07:52:53;94885.59;;;2.57;68.75
85735;BME280;76179;42.316;22.856;2024-02-04T07:55:18;94880.47;;;2.78;68.85
85735;BME280;76179;42.316;22.856;2024-02-04T07:57:44;94878.09;;;2.73;68.14
85735;BME280;76179;42.316;22.856;2024-02-04T08:00:10;94875.47;;;2.80;69.01
85735;BME280;76179;42.316;22.856;2024-02-04T08:02:36;94882.22;;;3.00;67.89
85735;BME280;76179;42.316;22.856;2024-02-04T08:05:03;94885.38;;;3.13;66.79
85735;BME280;76179;42.316;22.856;2024-02-04T08:07:29;94880.47;;;3.22;66.74
85735;BME280;76179;42.316;22.856;2024-02-04T08:09:54;94884.41;;;3.35;65.90
85735;BME280;76179;42.316;22.856;2024-02-04T08:12:20;94891.06;;;3.48;65.84
85735;BME280;76179;42.316;22.856;2024-02-04T08:14:45;94871.13;;;3.53;65.57
85735;BME280;76179;42.316;22.856;2024-02-04T08:17:10;94878.09;;;3.65;65.71
85735;BME280;76179;42.316;22.856;2024-02-04T08:19:36;94888.22;;;3.78;64.78
85735;BME280;76179;42.316;22.856;2024-02-04T08:22:01;94881.81;;;4.01;63.63
85735;BME280;76179;42.316;22.856;2024-02-04T08:24:26;94883.03;;;4.14;63.45
85735;BME280;76179;42.316;22.856;2024-02-04T08:26:52;94874.19;;;4.17;62.84
85735;BME280;76179;42.316;22.856;2024-02-04T08:29:18;94882.75;;;4.37;62.43
85735;BME280;76179;42.316;22.856;2024-02-04T08:31:43;94885.47;;;4.44;62.80
85735;BME280;76179;42.316;22.856;2024-02-04T08:34:09;94880.16;;;4.65;61.96
85735;BME280;76179;42.316;22.856;2024-02-04T08:36:34;94877.88;;;4.81;62.05
85735;BME280;76179;42.316;22.856;2024-02-04T08:38:59;94885.25;;;4.95;61.61
85735;BME280;76179;42.316;22.856;2024-02-04T08:41:25;94898.00;;;5.09;62.04
85735;BME280;76179;42.316;22.856;2024-02-04T08:43:51;94881.03;;;5.08;61.78
85735;BME280;76179;42.316;22.856;2024-02-04T08:46:17;94888.75;;;5.10;62.54
85735;BME280;76179;42.316;22.856;2024-02-04T08:48:42;94891.09;;;5.25;62.18
85735;BME280;76179;42.316;22.856;2024-02-04T08:51:11;94885.31;;;5.34;62.21
85735;BME280;76179;42.316;22.856;2024-02-04T08:53:38;94889.16;;;5.54;61.49
85735;BME280;76179;42.316;22.856;2024-02-04T08:56:06;94895.34;;;5.69;60.89
85735;BME280;76179;42.316;22.856;2024-02-04T08:58:31;94895.72;;;5.89;61.10
85735;BME280;76179;42.316;22.856;2024-02-04T09:00:56;94900.72;;;6.11;60.82
85735;BME280;76179;42.316;22.856;2024-02-04T09:03:22;94900.25;;;6.38;60.38
85735;BME280;76179;42.316;22.856;2024-02-04T09:05:48;94895.19;;;6.54;60.30
85735;BME280;76179;42.316;22.856;2024-02-04T09:08:14;94892.78;;;6.74;59.98
85735;BME280;76179;42.316;22.856;2024-02-04T09:10:39;94889.13;;;7.05;59.42
85735;BME280;76179;42.316;22.856;2024-02-04T09:13:04;94899.78;;;7.37;58.67
85735;BME280;76179;42.316;22.856;2024-02-04T09:15:30;94895.03;;;7.52;58.41
85735;BME280;76179;42.316;22.856;2024-02-04T09:17:55;94901.06;;;7.73;57.56
85735;BME280;76179;42.316;22.856;2024-02-04T09:20:20;94894.34;;;7.89;57.55
85735;BME280;76179;42.316;22.856;2024-02-04T09:22:46;94896.09;;;8.09;55.72
85735;BME280;76179;42.316;22.856;2024-02-04T09:25:11;94903.72;;;8.22;56.05
85735;BME280;76179;42.316;22.856;2024-02-04T09:27:36;94901.69;;;8.33;55.36
85735;BME280;76179;42.316;22.856;2024-02-04T09:30:02;94890.25;;;8.52;55.33
85735;BME280;76179;42.316;22.856;2024-02-04T09:32:28;94897.00;;;8.71;54.40
85735;BME280;76179;42.316;22.856;2024-02-04T09:34:53;94881.38;;;8.82;54.32
85735;BME280;76179;42.316;22.856;2024-02-04T09:37:19;94904.00;;;9.02;54.27
85735;BME280;76179;42.316;22.856;2024-02-04T09:39:44;94899.81;;;9.24;53.23
85735;BME280;76179;42.316;22.856;2024-02-04T09:42:19;94886.00;;;9.39;52.07
85735;BME280;76179;42.316;22.856;2024-02-04T09:44:46;94886.63;;;9.50;52.28
85735;BME280;76179;42.316;22.856;2024-02-04T09:47:12;94881.50;;;9.55;51.70
85735;BME280;76179;42.316;22.856;2024-02-04T09:49:39;94887.97;;;9.65;50.89
85735;BME280;76179;42.316;22.856;2024-02-04T09:52:07;94872.72;;;9.71;51.26
85735;BME280;76179;42.316;22.856;2024-02-04T09:55:19;94871.69;;;9.85;50.28
85735;BME280;76179;42.316;22.856;2024-02-04T09:57:19;94872.31;;;9.96;50.33
85735;BME280;76179;42.316;22.856;2024-02-04T09:59:44;94863.47;;;10.12;49.98
85735;BME280;76179;42.316;22.856;2024-02-04T10:02:10;94869.50;;;10.23;50.03
85735;BME280;76179;42.316;22.856;2024-02-04T10:04:35;94863.34;;;10.42;50.52
85735;BME280;76179;42.316;22.856;2024-02-04T10:07:02;94861.31;;;10.66;50.38
85735;BME280;76179;42.316;22.856;2024-02-04T10:09:27;94865.06;;;10.92;49.25
85735;BME280;76179;42.316;22.856;2024-02-04T10:11:53;94869.78;;;11.07;48.11
85735;BME280;76179;42.316;22.856;2024-02-04T10:14:18;94870.19;;;11.26;47.72
85735;BME280;76179;42.316;22.856;2024-02-04T10:16:45;94856.94;;;11.44;47.90
85735;BME280;76179;42.316;22.856;2024-02-04T10:19:11;94861.53;;;11.63;46.91
85735;BME280;76179;42.316;22.856;2024-02-04T10:21:37;94839.38;;;11.77;47.32
85735;BME280;76179;42.316;22.856;2024-02-04T10:24:02;94832.91;;;12.04;46.41
85735;BME280;76179;42.316;22.856;2024-02-04T10:26:30;94820.75;;;12.21;45.52
85735;BME280;76179;42.316;22.856;2024-02-04T10:28:58;94826.47;;;12.39;45.14
85735;BME280;76179;42.316;22.856;2024-02-04T10:31:23;94831.91;;;12.55;44.97
85735;BME280;76179;42.316;22.856;2024-02-04T10:33:50;94836.00;;;12.76;44.39
85735;BME280;76179;42.316;22.856;2024-02-04T10:36:16;94845.41;;;12.75;43.60
85735;BME280;76179;42.316;22.856;2024-02-04T10:38:41;94843.88;;;12.87;43.89
85735;BME280;76179;42.316;22.856;2024-02-04T10:41:07;94828.38;;;12.96;43.88
85735;BME280;76179;42.316;22.856;2024-02-04T10:43:33;94838.06;;;13.14;42.57
85735;BME280;76179;42.316;22.856;2024-02-04T10:46:02;94833.75;;;13.13;42.13
85735;BME280;76179;42.316;22.856;2024-02-04T10:48:34;94840.22;;;13.06;42.35
85735;BME280;76179;42.316;22.856;2024-02-04T10:51:12;94830.91;;;12.91;42.67
85735;BME280;76179;42.316;22.856;2024-02-04T10:53:41;94836.78;;;12.77;42.30
85735;BME280;76179;42.316;22.856;2024-02-04T10:56:14;94838.09;;;12.85;43.58
85735;BME280;76179;42.316;22.856;2024-02-04T10:58:43;94830.84;;;12.78;43.29
85735;BME280;76179;42.316;22.856;2024-02-04T11:01:10;94838.38;;;12.61;42.86
85735;BME280;76179;42.316;22.856;2024-02-04T11:03:36;94829.56;;;12.41;43.43
85735;BME280;76179;42.316;22.856;2024-02-04T11:06:02;94806.88;;;12.57;43.45
85735;BME280;76179;42.316;22.856;2024-02-04T11:08:28;94805.97;;;12.76;44.48
85735;BME280;76179;42.316;22.856;2024-02-04T11:10:53;94821.81;;;12.94;42.98
85735;BME280;76179;42.316;22.856;2024-02-04T11:13:20;94811.22;;;12.96;43.36
85735;BME280;76179;42.316;22.856;2024-02-04T11:15:47;94820.25;;;13.22;41.97
85735;BME280;76179;42.316;22.856;2024-02-04T11:21:25;94816.22;;;13.99;41.09
85735;BME280;76179;42.316;22.856;2024-02-04T11:24:22;94797.97;;;14.17;40.13
85735;BME280;76179;42.316;22.856;2024-02-04T11:26:52;94814.25;;;13.99;39.96
85735;BME280;76179;42.316;22.856;2024-02-04T11:29:18;94799.38;;;13.87;39.99
85735;BME280;76179;42.316;22.856;2024-02-04T11:31:43;94801.34;;;14.00;40.56
85735;BME280;76179;42.316;22.856;2024-02-04T11:34:10;94811.53;;;13.86;40.08
85735;BME280;76179;42.316;22.856;2024-02-04T11:36:39;94815.94;;;13.84;40.24
85735;BME280;76179;42.316;22.856;2024-02-04T11:39:17;94813.19;;;13.71;40.72
85735;BME280;76179;42.316;22.856;2024-02-04T11:41:47;94807.66;;;13.49;40.21
85735;BME280;76179;42.316;22.856;2024-02-04T11:44:12;94810.50;;;13.46;40.83
85735;BME280;76179;42.316;22.856;2024-02-04T11:46:38;94798.34;;;13.60;40.43
85735;BME280;76179;42.316;22.856;2024-02-04T11:49:03;94805.34;;;13.61;40.27
85735;BME280;76179;42.316;22.856;2024-02-04T11:51:39;94811.13;;;13.75;40.91
85735;BME280;76179;42.316;22.856;2024-02-04T11:54:04;94811.13;;;13.75;40.57
85735;BME280;76179;42.316;22.856;2024-02-04T11:56:30;94788.81;;;13.77;41.08
85735;BME280;76179;42.316;22.856;2024-02-04T11:58:58;94788.88;;;13.86;40.66
85735;BME280;76179;42.316;22.856;2024-02-04T12:01:24;94772.50;;;14.08;38.88
85735;BME280;76179;42.316;22.856;2024-02-04T12:03:50;94775.19;;;14.20;40.04
85735;BME280;76179;42.316;22.856;2024-02-04T12:06:16;94787.72;;;14.09;39.55
85735;BME280;76179;42.316;22.856;2024-02-04T12:08:42;94783.63;;;13.92;38.68
85735;BME280;76179;42.316;22.856;2024-02-04T12:11:08;94780.84;;;13.70;39.94
85735;BME280;76179;42.316;22.856;2024-02-04T12:13:33;94779.97;;;13.60;39.70
85735;BME280;76179;42.316;22.856;2024-02-04T12:16:04;94779.22;;;13.47;39.92
85735;BME280;76179;42.316;22.856;2024-02-04T12:18:30;94774.63;;;13.44;39.72
85735;BME280;76179;42.316;22.856;2024-02-04T12:20:56;94772.22;;;13.46;40.19
85735;BME280;76179;42.316;22.856;2024-02-04T12:23:21;94765.03;;;13.39;40.92
85735;BME280;76179;42.316;22.856;2024-02-04T12:25:48;94766.00;;;13.20;40.67
85735;BME280;76179;42.316;22.856;2024-02-04T12:28:14;94758.31;;;13.02;41.03
85735;BME280;76179;42.316;22.856;2024-02-04T12:30:40;94756.47;;;13.12;40.94
85735;BME280;76179;42.316;22.856;2024-02-04T12:33:06;94743.16;;;13.27;40.68
85735;BME280;76179;42.316;22.856;2024-02-04T12:35:32;94744.88;;;13.46;39.38
85735;BME280;76179;42.316;22.856;2024-02-04T12:37:58;94741.34;;;13.58;39.35
85735;BME280;76179;42.316;22.856;2024-02-04T12:40:30;94751.88;;;13.47;38.68
85735;BME280;76179;42.316;22.856;2024-02-04T12:42:57;94749.28;;;13.18;39.10
85735;BME280;76179;42.316;22.856;2024-02-04T12:45:24;94731.88;;;13.25;39.21
85735;BME280;76179;42.316;22.856;2024-02-04T12:47:51;94729.81;;;13.29;39.35
85735;BME280;76179;42.316;22.856;2024-02-04T12:50:17;94730.81;;;13.22;39.16
85735;BME280;76179;42.316;22.856;2024-02-04T12:52:44;94737.28;;;13.16;39.45
85735;BME280;76179;42.316;22.856;2024-02-04T12:55:22;94739.88;;;13.06;39.99
85735;BME280;76179;42.316;22.856;2024-02-04T12:57:49;94742.25;;;13.04;38.72
85735;BME280;76179;42.316;22.856;2024-02-04T13:00:17;94746.63;;;13.02;39.64